createdAt,value
2024-05-09T00:00:36.257Z,4.05
2024-05-09T00:03:08.244Z,3.88
2024-05-09T00:05:36.653Z,4.10
2024-05-09T00:08:04.084Z,4.17
2024-05-09T00:10:36.342Z,4.50
2024-05-09T00:13:09.341Z,3.70
2024-05-09T00:15:36.862Z,4.00
2024-05-09T00:18:05.442Z,4.05
2024-05-09T00:20:38.130Z,4.03
2024-05-09T00:23:13.823Z,3.47
2024-05-09T00:25:43.052Z,3.90
2024-05-09T00:28:11.521Z,4.38
2024-05-09T00:30:38.233Z,4.10
2024-05-09T00:33:09.606Z,4.20
2024-05-09T00:35:37.557Z,3.90
2024-05-09T00:38:04.841Z,3.45
2024-05-09T00:40:43.258Z,3.63
2024-05-09T00:43:12.531Z,3.63
2024-05-09T00:45:40.328Z,3.73
2024-05-09T00:48:09.379Z,3.50
2024-05-09T00:50:39.751Z,3.85
2024-05-09T00:53:08.188Z,3.70
2024-05-09T00:55:37.224Z,3.85
2024-05-09T00:58:07.502Z,3.77
2024-05-09T01:00:39.103Z,3.60
2024-05-09T01:03:12.553Z,3.60
2024-05-09T01:05:41.062Z,4.03
2024-05-09T01:08:09.019Z,3.10
2024-05-09T01:10:41.715Z,4.13
2024-05-09T01:13:10.724Z,4.28
2024-05-09T01:15:37.353Z,4.32
2024-05-09T01:18:07.796Z,4.10
2024-05-09T01:20:41.979Z,4.30
2024-05-09T01:23:12.409Z,4.50
2024-05-09T01:25:39.939Z,4.45
2024-05-09T01:28:07.142Z,4.72
2024-05-09T01:30:36.326Z,4.25
2024-05-09T01:33:09.866Z,4.10
2024-05-09T01:35:39.210Z,4.75
2024-05-09T01:38:06.992Z,4.00
2024-05-09T01:40:38.498Z,3.75
2024-05-09T01:43:10.983Z,3.05
2024-05-09T01:45:39.504Z,3.50
2024-05-09T01:48:07.875Z,3.45
2024-05-09T01:50:39.599Z,3.72
2024-05-09T01:53:15.089Z,3.95
2024-05-09T01:55:42.494Z,4.47
2024-05-09T01:58:09.591Z,3.95
2024-05-09T02:00:40.629Z,3.90
2024-05-09T02:03:12.715Z,4.32
2024-05-09T02:05:42.858Z,4.20
2024-05-09T02:08:17.006Z,3.67
2024-05-09T02:10:44.700Z,4.50
2024-05-09T02:13:11.637Z,3.97
2024-05-09T02:15:38.362Z,3.67
2024-05-09T02:18:05.715Z,3.83
2024-05-09T02:20:36.114Z,3.40
2024-05-09T02:23:06.214Z,3.90
2024-05-09T02:25:33.409Z,3.85
2024-05-09T02:28:00.136Z,3.55
2024-05-09T02:30:36.563Z,4.20
2024-05-09T02:33:08.066Z,3.65
2024-05-09T02:35:35.507Z,4.93
2024-05-09T02:38:02.322Z,4.13
2024-05-09T02:40:36.494Z,4.30
2024-05-09T02:43:10.019Z,3.92
2024-05-09T02:45:38.098Z,4.10
2024-05-09T02:48:05.502Z,4.07
2024-05-09T02:50:37.978Z,4.30
2024-05-09T02:53:10.823Z,4.00
2024-05-09T02:55:38.266Z,3.90
2024-05-09T02:58:07.247Z,4.07
2024-05-09T03:00:38.915Z,4.35
2024-05-09T03:03:09.561Z,4.20
2024-05-09T03:05:38.179Z,3.30
2024-05-09T03:08:05.438Z,3.42
2024-05-09T03:10:36.265Z,3.65
2024-05-09T03:13:13.527Z,3.85
2024-05-09T03:15:41.634Z,3.90
2024-05-09T03:18:08.819Z,3.70
2024-05-09T03:20:36.822Z,4.00
2024-05-09T03:23:09.329Z,4.10
2024-05-09T03:25:37.188Z,4.53
2024-05-09T03:28:04.081Z,4.75
2024-05-09T03:30:39.510Z,3.97
2024-05-09T03:33:15.670Z,4.15
2024-05-09T03:35:43.958Z,4.07
2024-05-09T03:38:10.839Z,4.30
2024-05-09T03:40:50.535Z,4.53
2024-05-09T03:43:18.847Z,4.13
2024-05-09T03:45:46.562Z,4.28
2024-05-09T03:48:13.512Z,3.22
2024-05-09T03:50:40.453Z,3.55
2024-05-09T03:53:10.458Z,4.63
2024-05-09T03:55:37.244Z,4.80
2024-05-09T03:58:04.023Z,5.15
2024-05-09T04:00:37.368Z,5.00
2024-05-09T04:03:08.729Z,4.65
2024-05-09T04:05:39.688Z,5.13
2024-05-09T04:08:07.044Z,4.95
2024-05-09T04:10:35.024Z,5.05
2024-05-09T04:13:03.172Z,4.85
2024-05-09T04:15:30.377Z,4.53
2024-05-09T04:17:57.260Z,4.40
2024-05-09T04:20:33.689Z,4.72
2024-05-09T04:23:06.698Z,4.80
2024-05-09T04:25:33.700Z,4.72
2024-05-09T04:28:00.506Z,4.47
2024-05-09T04:30:36.080Z,4.47
2024-05-09T04:33:07.485Z,5.05
2024-05-09T04:35:35.702Z,5.30
2024-05-09T04:38:02.736Z,4.68
2024-05-09T04:40:34.128Z,5.20
2024-05-09T04:43:03.976Z,4.88
2024-05-09T04:45:30.860Z,4.70
2024-05-09T04:47:58.246Z,4.32
2024-05-09T04:50:33.457Z,3.92
2024-05-09T04:53:04.369Z,4.85
2024-05-09T04:55:31.686Z,4.55
2024-05-09T04:57:58.457Z,4.78
2024-05-09T05:00:34.157Z,4.97
2024-05-09T05:03:08.475Z,5.10
2024-05-09T05:05:40.322Z,4.72
2024-05-09T05:08:18.512Z,4.93
2024-05-09T05:10:46.621Z,4.80
2024-05-09T05:13:20.810Z,4.65
2024-05-09T05:15:55.759Z,4.70
2024-05-09T05:18:23.941Z,5.22
2024-05-09T05:20:50.894Z,5.60
2024-05-09T05:23:22.183Z,5.70
2024-05-09T05:25:50.559Z,5.75
2024-05-09T05:28:17.771Z,5.57
2024-05-09T05:30:44.576Z,5.10
2024-05-09T05:33:15.712Z,5.53
2024-05-09T05:35:42.809Z,5.85
2024-05-09T05:38:11.103Z,5.40
2024-05-09T05:40:39.241Z,5.80
2024-05-09T05:43:11.093Z,6.22
2024-05-09T05:45:38.430Z,7.00
2024-05-09T05:48:06.945Z,6.55
2024-05-09T05:50:37.177Z,6.75
2024-05-09T05:53:07.925Z,7.88
2024-05-09T05:55:39.392Z,8.20
2024-05-09T05:58:10.576Z,7.90
2024-05-09T06:00:39.476Z,8.75
2024-05-09T06:03:09.296Z,8.90
2024-05-09T06:05:37.430Z,8.00
2024-05-09T06:08:04.730Z,9.15
2024-05-09T06:10:38.001Z,9.57
2024-05-09T06:13:07.214Z,10.15
2024-05-09T06:15:34.010Z,11.65
2024-05-09T06:18:00.914Z,11.35
2024-05-09T06:20:35.223Z,10.43
2024-05-09T06:23:05.348Z,11.13
2024-05-09T06:25:32.401Z,11.10
2024-05-09T06:28:02.329Z,11.20
2024-05-09T06:30:37.557Z,10.60
2024-05-09T06:33:07.860Z,12.18
2024-05-09T06:35:35.279Z,11.10
2024-05-09T06:38:02.485Z,11.30
2024-05-09T06:40:36.381Z,11.02
2024-05-09T06:43:10.863Z,10.27
2024-05-09T06:45:39.615Z,10.57
2024-05-09T06:48:07.339Z,10.63
2024-05-09T06:50:37.865Z,11.38
2024-05-09T06:53:06.262Z,11.18
2024-05-09T06:55:33.172Z,10.43
2024-05-09T06:57:59.894Z,10.15
2024-05-09T07:00:35.076Z,10.43
2024-05-09T07:03:17.918Z,10.65
2024-05-09T07:05:47.209Z,10.73
2024-05-09T07:08:15.233Z,10.23
2024-05-09T07:10:42.177Z,9.85
2024-05-09T07:13:13.327Z,10.70
2024-05-09T07:15:41.614Z,10.52
2024-05-09T07:18:10.206Z,10.75
2024-05-09T07:20:37.069Z,10.63
2024-05-09T07:23:03.895Z,10.90
2024-05-09T07:25:30.744Z,9.83
2024-05-09T07:27:57.632Z,9.90
2024-05-09T07:30:32.606Z,10.43
2024-05-09T07:33:01.828Z,9.38
2024-05-09T07:35:29.485Z,8.45
2024-05-09T07:37:56.326Z,9.47
2024-05-09T07:40:32.227Z,8.40
2024-05-09T07:43:08.308Z,8.38
2024-05-09T07:52:32.528Z,9.20
2024-05-09T07:53:39.647Z,8.57
2024-05-09T07:56:11.720Z,9.25
2024-05-09T07:58:39.416Z,8.90
2024-05-09T08:01:06.557Z,8.82
2024-05-09T08:03:33.544Z,8.47
2024-05-09T08:06:00.493Z,8.38
2024-05-09T08:08:27.139Z,7.75
2024-05-09T08:10:53.901Z,7.32
2024-05-09T08:13:20.753Z,7.85
2024-05-09T08:15:47.489Z,8.03
2024-05-09T08:18:14.343Z,8.00
2024-05-09T08:20:42.251Z,7.35
2024-05-09T08:23:08.978Z,7.13
2024-05-09T08:25:35.635Z,7.50
2024-05-09T08:28:04.485Z,6.87
2024-05-09T08:30:36.701Z,6.68
2024-05-09T08:33:05.970Z,6.95
2024-05-09T08:35:33.681Z,7.40
2024-05-09T08:38:02.576Z,7.57
2024-05-09T08:40:34.599Z,7.70
2024-05-09T08:43:11.328Z,7.80
2024-05-09T08:45:44.330Z,8.35
2024-05-09T08:48:14.134Z,7.90
2024-05-09T08:50:41.894Z,7.15
2024-05-09T08:53:09.253Z,7.70
2024-05-09T08:55:40.580Z,7.78
2024-05-09T08:58:14.257Z,8.07
2024-05-09T09:00:43.214Z,7.63
2024-05-09T09:03:15.136Z,7.80
2024-05-09T09:05:50.218Z,7.63
2024-05-09T09:08:17.241Z,7.80
2024-05-09T09:10:45.474Z,8.48
2024-05-09T09:13:12.324Z,7.68
2024-05-09T09:15:49.508Z,7.53
2024-05-09T09:18:17.325Z,8.07
2024-05-09T09:20:44.733Z,7.78
2024-05-09T09:23:11.466Z,8.05
2024-05-09T09:25:41.371Z,7.15
2024-05-09T09:28:08.681Z,7.03
2024-05-09T09:30:41.845Z,6.30
2024-05-09T09:33:10.340Z,7.03
2024-05-09T09:35:40.001Z,6.95
2024-05-09T09:38:07.688Z,7.43
2024-05-09T09:40:39.102Z,6.25
2024-05-09T09:43:14.674Z,6.90
2024-05-09T09:45:43.527Z,6.57
2024-05-09T09:48:12.184Z,7.45
2024-05-09T09:50:40.512Z,7.30
2024-05-09T09:53:07.505Z,7.72
2024-05-09T09:55:35.674Z,7.17
2024-05-09T09:58:04.443Z,6.95
2024-05-09T10:00:33.756Z,7.10
2024-05-09T10:03:01.804Z,6.40
2024-05-09T10:05:30.018Z,6.07
2024-05-09T10:07:58.727Z,6.27
2024-05-09T10:10:31.805Z,6.15
2024-05-09T10:13:07.263Z,5.97
2024-05-09T10:15:50.539Z,5.53
2024-05-09T10:18:17.763Z,5.45
2024-05-09T10:20:45.810Z,5.03
2024-05-09T10:23:24.112Z,5.40
2024-05-09T10:26:05.901Z,5.05
2024-05-09T10:28:35.314Z,5.15
2024-05-09T10:31:13.410Z,5.13
2024-05-09T10:33:46.115Z,5.17
2024-05-09T10:36:21.680Z,5.20
2024-05-09T10:38:49.723Z,5.30
2024-05-09T10:41:17.284Z,5.47
2024-05-09T10:43:43.986Z,6.13
2024-05-09T10:46:11.592Z,4.70
2024-05-09T10:48:39.829Z,6.10
2024-05-09T10:51:06.822Z,5.40
2024-05-09T10:53:44.565Z,5.88
2024-05-09T10:56:13.431Z,5.43
2024-05-09T10:58:40.149Z,6.47
2024-05-09T11:01:07.569Z,7.20
2024-05-09T11:03:35.629Z,6.80
2024-05-09T11:06:02.935Z,6.68
2024-05-09T11:08:32.089Z,6.50
2024-05-09T11:10:59.894Z,7.00
2024-05-09T11:13:34.498Z,6.60
2024-05-09T11:16:02.425Z,5.97
2024-05-09T11:18:33.814Z,5.88
2024-05-09T11:21:03.735Z,6.22
2024-05-09T11:23:31.035Z,6.33
2024-05-09T11:25:58.777Z,6.03
2024-05-09T11:28:28.245Z,5.18
2024-05-09T11:31:08.736Z,5.43
2024-05-09T11:33:40.219Z,6.10
2024-05-09T11:36:08.180Z,7.00
2024-05-09T11:38:35.199Z,7.35
2024-05-09T11:41:02.895Z,8.45
2024-05-09T11:43:29.553Z,8.50
2024-05-09T11:45:59.769Z,7.75
2024-05-09T11:48:27.034Z,7.80
2024-05-09T11:50:55.467Z,7.75
2024-05-09T11:53:22.403Z,8.32
2024-05-09T11:55:49.027Z,8.45
2024-05-09T11:58:18.051Z,7.18
2024-05-09T12:00:45.693Z,7.50
2024-05-09T12:03:12.672Z,7.70
2024-05-09T12:05:39.603Z,8.55
2024-05-09T12:08:06.974Z,7.68
2024-05-09T12:10:35.820Z,7.85
2024-05-09T12:13:05.709Z,6.80
2024-05-09T12:15:36.651Z,8.27
2024-05-09T12:18:04.792Z,8.18
2024-05-09T12:20:37.428Z,7.53
2024-05-09T12:23:07.516Z,7.03
2024-05-09T12:25:34.952Z,7.87
2024-05-09T12:28:01.930Z,7.10
2024-05-09T12:30:36.145Z,7.18
2024-05-09T12:33:10.327Z,8.15
2024-05-09T12:35:38.037Z,6.80
2024-05-09T12:38:05.073Z,7.53
2024-05-09T12:40:36.629Z,8.27
2024-05-09T12:43:07.451Z,8.43
2024-05-09T12:45:35.197Z,8.05
2024-05-09T12:48:02.097Z,8.40
2024-05-09T12:50:33.071Z,8.07
2024-05-09T12:53:02.384Z,7.88
2024-05-09T12:55:33.392Z,7.68
2024-05-09T12:58:04.812Z,7.85
2024-05-09T13:00:34.133Z,8.30
2024-05-09T13:03:01.653Z,7.90
2024-05-09T13:05:29.051Z,8.52
2024-05-09T13:07:56.859Z,8.05
2024-05-09T13:10:31.051Z,7.45
2024-05-09T13:13:00.170Z,8.07
2024-05-09T13:15:27.445Z,8.73
2024-05-09T13:17:56.387Z,8.38
2024-05-09T13:20:31.339Z,8.55
2024-05-09T13:23:01.951Z,8.70
2024-05-09T13:25:28.685Z,9.40
2024-05-09T13:27:56.261Z,9.10
2024-05-09T13:30:29.744Z,8.75
2024-05-09T13:33:06.077Z,8.40
2024-05-09T13:35:35.318Z,8.02
2024-05-09T13:38:03.356Z,8.32
2024-05-09T13:40:34.385Z,8.50
2024-05-09T13:43:04.368Z,7.63
2024-05-09T13:45:31.602Z,10.43
2024-05-09T13:47:59.062Z,7.90
2024-05-09T13:50:32.837Z,8.18
2024-05-09T13:53:02.528Z,7.37
2024-05-09T13:55:29.167Z,7.60
2024-05-09T13:57:56.358Z,7.68
2024-05-09T14:00:37.391Z,7.47
2024-05-09T14:03:10.061Z,8.70
2024-05-09T14:05:37.050Z,8.40
2024-05-09T14:08:04.204Z,8.05
2024-05-09T14:10:32.101Z,8.32
2024-05-09T14:13:00.271Z,8.35
2024-05-09T14:15:27.113Z,8.52
2024-05-09T14:17:55.055Z,9.10
2024-05-09T14:22:51.422Z,8.07
2024-05-09T14:25:18.351Z,8.10
2024-05-09T14:27:45.233Z,8.27
2024-05-09T14:30:18.599Z,8.37
2024-05-09T14:32:53.223Z,8.10
2024-05-09T14:35:20.076Z,8.82
2024-05-09T14:37:46.841Z,8.55
2024-05-09T14:40:30.375Z,8.90
2024-05-09T14:43:03.212Z,8.57
2024-05-09T14:45:30.191Z,9.40
2024-05-09T14:47:57.312Z,8.73
2024-05-09T14:50:32.558Z,8.80
2024-05-09T14:53:03.644Z,8.52
2024-05-09T14:55:30.399Z,8.67
2024-05-09T14:57:57.409Z,8.80
2024-05-09T15:00:28.947Z,8.02
2024-05-09T15:03:00.736Z,8.45
2024-05-09T15:05:27.644Z,9.30
2024-05-09T15:07:56.967Z,9.33
2024-05-09T15:10:31.556Z,8.55
2024-05-09T15:13:02.021Z,8.85
2024-05-09T15:15:28.681Z,8.05
2024-05-09T15:17:55.847Z,9.25
2024-05-09T15:20:31.039Z,9.27
2024-05-09T15:23:02.048Z,8.95
2024-05-09T15:25:28.965Z,9.48
2024-05-09T15:27:55.980Z,10.07
2024-05-09T15:32:52.446Z,10.03
2024-05-09T15:35:20.460Z,10.63
2024-05-09T15:37:48.508Z,10.23
2024-05-09T15:40:22.316Z,9.80
2024-05-09T15:42:57.851Z,9.20
2024-05-09T15:45:24.547Z,8.47
2024-05-09T15:47:51.227Z,7.43
2024-05-09T15:50:27.683Z,9.52
2024-05-09T15:52:59.275Z,9.68
2024-05-09T15:55:26.225Z,9.73
2024-05-09T15:57:52.924Z,10.60
2024-05-09T16:00:28.443Z,10.70
2024-05-09T16:03:01.085Z,11.25
2024-05-09T16:05:28.132Z,10.20
2024-05-09T16:07:55.087Z,9.55
2024-05-09T16:10:25.994Z,10.83
2024-05-09T16:12:58.808Z,10.68
2024-05-09T16:15:25.586Z,10.43
2024-05-09T16:17:52.343Z,11.57
2024-05-09T16:20:29.867Z,11.32
2024-05-09T16:23:05.039Z,11.63
2024-05-09T16:25:31.761Z,10.90
2024-05-09T16:27:58.542Z,11.73
2024-05-09T16:30:31.968Z,12.45
2024-05-09T16:33:02.417Z,12.05
2024-05-09T16:35:29.505Z,11.37
2024-05-09T16:37:56.356Z,12.23
2024-05-09T16:40:30.329Z,12.75
2024-05-09T16:43:04.978Z,12.68
2024-05-09T16:45:32.069Z,12.70
2024-05-09T16:47:59.743Z,12.77
2024-05-09T16:50:32.402Z,11.77
2024-05-09T16:53:01.803Z,11.15
2024-05-09T16:55:28.694Z,13.95
2024-05-09T16:57:56.325Z,13.43
2024-05-09T17:00:34.829Z,13.00
2024-05-09T17:03:07.930Z,13.85
2024-05-09T17:05:35.427Z,14.65
2024-05-09T17:08:03.115Z,13.85
2024-05-09T17:10:33.451Z,13.73
2024-05-09T17:13:06.382Z,13.80
2024-05-09T17:15:34.912Z,13.68
2024-05-09T17:18:02.367Z,15.70
2024-05-09T17:20:34.066Z,14.63
2024-05-09T17:23:04.842Z,14.48
2024-05-09T17:25:32.371Z,13.97
2024-05-09T17:28:07.340Z,15.18
2024-05-09T17:30:37.700Z,14.95
2024-05-09T17:33:08.512Z,13.88
2024-05-09T17:35:36.718Z,14.50
2024-05-09T17:38:05.002Z,14.60
2024-05-09T17:40:35.739Z,14.85
2024-05-09T17:43:05.388Z,15.48
2024-05-09T17:45:33.206Z,14.38
2024-05-09T17:48:00.825Z,13.95
2024-05-09T17:50:34.945Z,13.93
2024-05-09T17:53:04.008Z,14.65
2024-05-09T17:55:30.784Z,14.90
2024-05-09T17:57:57.810Z,15.27
2024-05-09T18:00:36.223Z,14.70
2024-05-09T18:03:07.026Z,14.90
2024-05-09T18:05:36.391Z,15.32
2024-05-09T18:08:04.038Z,15.05
2024-05-09T18:10:36.640Z,14.70
2024-05-09T18:13:07.158Z,14.07
2024-05-09T18:15:34.414Z,14.70
2024-05-09T18:18:02.265Z,15.05
2024-05-09T18:20:38.041Z,14.57
2024-05-09T18:23:10.626Z,13.85
2024-05-09T18:25:37.381Z,14.98
2024-05-09T18:28:04.564Z,13.77
2024-05-09T18:30:34.612Z,14.52
2024-05-09T18:33:03.818Z,15.15
2024-05-09T18:35:30.845Z,14.85
2024-05-09T18:37:57.606Z,14.88
2024-05-09T18:40:32.557Z,13.93
2024-05-09T18:43:03.363Z,15.13
2024-05-09T18:45:30.584Z,15.18
2024-05-09T18:47:57.566Z,14.73
2024-05-09T18:50:33.729Z,15.43
2024-05-09T18:53:05.994Z,14.17
2024-05-09T18:55:32.864Z,14.32
2024-05-09T18:57:59.618Z,14.68
2024-05-09T19:00:33.647Z,14.93
2024-05-09T19:03:05.892Z,15.00
2024-05-09T19:05:35.287Z,15.43
2024-05-09T19:08:03.412Z,15.20
2024-05-09T19:10:34.340Z,15.52
2024-05-09T19:13:06.489Z,14.40
2024-05-09T19:15:37.199Z,14.70
2024-05-09T19:18:04.269Z,14.00
2024-05-09T19:20:34.793Z,13.57
2024-05-09T19:23:03.103Z,13.75
2024-05-09T19:25:29.940Z,13.05
2024-05-09T19:27:56.742Z,13.30
2024-05-09T19:30:30.505Z,12.83
2024-05-09T19:33:05.693Z,13.05
2024-05-09T19:35:32.625Z,11.40
2024-05-09T19:37:59.528Z,11.30
2024-05-09T19:40:31.376Z,11.80
2024-05-09T19:43:01.560Z,12.23
2024-05-09T19:45:29.003Z,12.50
2024-05-09T19:47:56.388Z,12.07
2024-05-09T19:50:31.918Z,11.48
2024-05-09T19:53:06.362Z,12.02
2024-05-09T19:55:33.454Z,12.23
2024-05-09T19:58:04.746Z,11.82
2024-05-09T20:00:38.547Z,12.60
2024-05-09T20:03:08.014Z,11.98
2024-05-09T20:05:35.455Z,11.82
2024-05-09T20:08:02.539Z,11.80
2024-05-09T20:10:32.725Z,11.82
2024-05-09T20:13:01.866Z,12.10
2024-05-09T20:15:29.225Z,12.02
2024-05-09T20:17:56.222Z,12.90
2024-05-09T20:20:33.084Z,13.30
2024-05-09T20:23:06.238Z,13.15
2024-05-09T20:25:33.052Z,13.77
2024-05-09T20:27:59.902Z,12.10
2024-05-09T20:30:32.009Z,14.63
2024-05-09T20:33:02.991Z,16.20
2024-05-09T20:35:33.100Z,14.07
2024-05-09T20:38:01.503Z,15.73
2024-05-09T20:40:33.238Z,13.73
2024-05-09T20:43:03.863Z,14.70
2024-05-09T20:45:30.640Z,15.33
2024-05-09T20:47:57.715Z,14.30
2024-05-09T20:50:35.446Z,15.15
2024-05-09T20:53:14.532Z,13.57
2024-05-09T20:55:45.468Z,13.75
2024-05-09T20:58:12.878Z,13.40
2024-05-09T21:00:43.267Z,14.32
2024-05-09T21:03:12.835Z,13.55
2024-05-09T21:05:40.435Z,13.52
2024-05-09T21:08:07.706Z,13.50
2024-05-09T21:10:35.735Z,13.03
2024-05-09T21:13:03.603Z,12.77
2024-05-09T21:15:31.474Z,12.98
2024-05-09T21:17:58.613Z,13.20
2024-05-09T21:20:31.100Z,13.50
2024-05-09T21:22:59.276Z,12.40
2024-05-09T21:25:26.021Z,14.65
2024-05-09T21:27:53.055Z,15.25
2024-05-09T21:30:31.417Z,13.95
2024-05-09T21:33:05.876Z,12.43
2024-05-09T21:35:33.158Z,12.77
2024-05-09T21:37:59.906Z,13.48
2024-05-09T21:40:33.696Z,13.73
2024-05-09T21:43:02.388Z,13.85
2024-05-09T21:45:29.402Z,12.77
2024-05-09T21:47:56.171Z,13.40
2024-05-09T21:50:28.694Z,12.45
2024-05-09T21:53:03.250Z,13.70
2024-05-09T21:55:30.247Z,14.07
2024-05-09T21:57:57.218Z,13.90
2024-05-09T22:00:32.090Z,14.13
2024-05-09T22:03:03.511Z,12.98
2024-05-09T22:05:30.714Z,13.60
2024-05-09T22:07:57.541Z,14.00
2024-05-09T22:10:30.610Z,14.45
2024-05-09T22:13:01.051Z,14.63
2024-05-09T22:15:27.977Z,14.45
2024-05-09T22:17:56.201Z,13.98
2024-05-09T22:20:32.833Z,13.52
2024-05-09T22:23:04.085Z,14.82
2024-05-09T22:25:31.952Z,15.33
2024-05-09T22:27:59.423Z,15.20
2024-05-09T22:30:34.392Z,15.30
2024-05-09T22:33:05.964Z,15.02
2024-05-09T22:35:33.043Z,14.75
2024-05-09T22:37:59.877Z,13.00
2024-05-09T22:40:38.185Z,14.30
2024-05-09T22:43:13.093Z,12.90
2024-05-09T22:45:40.002Z,12.73
2024-05-09T22:48:08.271Z,11.75
2024-05-09T22:50:35.111Z,11.20
2024-05-09T22:53:01.872Z,10.77
2024-05-09T22:55:28.818Z,11.30
2024-05-09T22:57:55.704Z,13.90
2024-05-09T23:00:30.894Z,13.65
2024-05-09T23:03:00.261Z,13.87
2024-05-09T23:05:27.337Z,13.30
2024-05-09T23:07:54.201Z,13.35
2024-05-09T23:10:27.289Z,14.50
2024-05-09T23:12:58.878Z,13.38
2024-05-09T23:15:25.610Z,13.30
2024-05-09T23:17:52.576Z,14.10
2024-05-09T23:20:29.807Z,13.02
2024-05-09T23:23:03.521Z,11.10
2024-05-09T23:25:30.277Z,13.57
2024-05-09T23:27:57.110Z,12.87
2024-05-09T23:30:33.313Z,13.30
2024-05-09T23:33:05.158Z,14.80
2024-05-09T23:35:31.927Z,15.40
2024-05-09T23:37:58.609Z,14.88
2024-05-09T23:40:36.725Z,14.67
2024-05-09T23:43:07.428Z,14.70
2024-05-09T23:45:34.576Z,15.20
2024-05-09T23:48:01.709Z,12.85
2024-05-09T23:50:35.793Z,11.10
2024-05-09T23:53:05.861Z,14.43
2024-05-09T23:55:32.991Z,14.18
2024-05-09T23:58:00.226Z,13.65
